createdAt,value
2022-10-13T00:00:02.344Z,1024.9
2022-10-13T00:01:02.375Z,1024.8
2022-10-13T00:02:02.212Z,1024.9
2022-10-13T00:03:02.207Z,1024.9
2022-10-13T00:04:01.979Z,1024.9
2022-10-13T00:05:01.957Z,1024.9
2022-10-13T00:06:01.736Z,1024.9
2022-10-13T00:07:02.737Z,1024.9
2022-10-13T00:08:02.518Z,1024.9
2022-10-13T00:09:02.480Z,1024.9
2022-10-13T00:10:02.393Z,1024.9
2022-10-13T00:11:02.139Z,1024.9
2022-10-13T00:12:02.065Z,1024.9
2022-10-13T00:13:01.909Z,1024.9
2022-10-13T00:14:01.744Z,1024.9
2022-10-13T00:15:02.721Z,1024.9
2022-10-13T00:16:02.425Z,1024.9
2022-10-13T00:17:02.477Z,1024.9
2022-10-13T00:18:02.472Z,1024.9
2022-10-13T00:19:02.639Z,1024.9
2022-10-13T00:20:02.350Z,1024.8
2022-10-13T00:21:02.312Z,1024.9
2022-10-13T00:22:02.107Z,1024.8
2022-10-13T00:23:02.123Z,1024.8
2022-10-13T00:24:01.871Z,1024.8
2022-10-13T00:25:01.820Z,1024.8
2022-10-13T00:26:02.753Z,1024.8
2022-10-13T00:27:02.493Z,1024.8
2022-10-13T00:28:02.588Z,1024.7
2022-10-13T00:29:02.504Z,1024.8
2022-10-13T00:30:02.393Z,1024.8
2022-10-13T00:31:02.297Z,1024.8
2022-10-13T00:32:01.944Z,1024.8
2022-10-13T00:33:01.909Z,1024.7
2022-10-13T00:34:01.722Z,1024.8
2022-10-13T00:35:02.696Z,1024.8
2022-10-13T00:36:02.444Z,1024.7
2022-10-13T00:37:02.406Z,1024.7
2022-10-13T00:38:02.320Z,1024.7
2022-10-13T00:39:02.055Z,1024.7
2022-10-13T00:40:01.974Z,1024.7
2022-10-13T00:41:01.758Z,1024.7
2022-10-13T00:42:02.743Z,1024.7
2022-10-13T00:43:02.518Z,1024.7
2022-10-13T00:44:02.426Z,1024.6
2022-10-13T00:45:02.282Z,1024.6
2022-10-13T00:46:02.068Z,1024.5
2022-10-13T00:47:02.318Z,1024.6
2022-10-13T00:48:02.249Z,1024.6
2022-10-13T00:49:02.045Z,1024.7
2022-10-13T00:50:02.021Z,1024.7
2022-10-13T00:51:01.755Z,1024.6
2022-10-13T00:52:02.797Z,1024.7
2022-10-13T00:53:02.515Z,1024.7
2022-10-13T00:54:02.544Z,1024.7
2022-10-13T00:55:02.325Z,1024.7
2022-10-13T00:56:02.244Z,1024.7
2022-10-13T00:57:02.006Z,1024.7
2022-10-13T00:58:05.949Z,1024.7
2022-10-13T00:59:02.836Z,1024.7
2022-10-13T01:00:02.532Z,1024.7
2022-10-13T01:01:02.634Z,1024.7
2022-10-13T01:02:02.677Z,1024.7
2022-10-13T01:03:02.466Z,1024.7
2022-10-13T01:04:02.383Z,1024.7
2022-10-13T01:05:02.074Z,1024.7
2022-10-13T01:06:02.081Z,1024.7
2022-10-13T01:07:01.809Z,1024.7
2022-10-13T01:08:01.793Z,1024.6
2022-10-13T01:09:02.714Z,1024.6
2022-10-13T01:10:02.491Z,1024.6
2022-10-13T01:11:02.443Z,1024.6
2022-10-13T01:12:02.274Z,1024.6
2022-10-13T01:13:02.048Z,1024.6
2022-10-13T01:14:01.979Z,1024.5
2022-10-13T01:15:01.918Z,1024.6
2022-10-13T01:16:02.788Z,1024.5
2022-10-13T01:17:02.543Z,1024.5
2022-10-13T01:18:02.519Z,1024.5
2022-10-13T01:19:02.372Z,1024.5
2022-10-13T01:20:02.195Z,1024.5
2022-10-13T01:21:02.093Z,1024.5
2022-10-13T01:22:01.851Z,1024.5
2022-10-13T01:23:01.908Z,1024.5
2022-10-13T01:24:02.773Z,1024.5
2022-10-13T01:25:02.501Z,1024.5
2022-10-13T01:26:02.570Z,1024.4
2022-10-13T01:27:02.311Z,1024.4
2022-10-13T01:28:02.348Z,1024.4
2022-10-13T01:29:02.072Z,1024.5
2022-10-13T01:30:02.089Z,1024.4
2022-10-13T01:31:01.797Z,1024.4
2022-10-13T01:32:01.739Z,1024.4
2022-10-13T01:33:02.715Z,1024.4
2022-10-13T01:34:02.519Z,1024.4
2022-10-13T01:35:02.550Z,1024.4
2022-10-13T01:36:02.275Z,1024.4
2022-10-13T01:37:02.240Z,1024.4
2022-10-13T01:38:01.987Z,1024.4
2022-10-13T01:39:01.960Z,1024.4
2022-10-13T01:40:01.684Z,1024.3
2022-10-13T01:41:02.659Z,1024.3
2022-10-13T01:42:02.449Z,1024.3
2022-10-13T01:43:02.414Z,1024.3
2022-10-13T01:44:02.115Z,1024.3
2022-10-13T01:45:02.042Z,1024.3
2022-10-13T01:46:01.807Z,1024.3
2022-10-13T01:47:01.766Z,1024.3
2022-10-13T01:48:02.749Z,1024.3
2022-10-13T01:49:02.480Z,1024.3
2022-10-13T01:50:02.484Z,1024.3
2022-10-13T01:51:02.368Z,1024.3
2022-10-13T01:52:02.087Z,1024.3
2022-10-13T01:53:02.047Z,1024.2
2022-10-13T01:54:01.818Z,1024.3
2022-10-13T01:55:02.760Z,1024.3
2022-10-13T01:56:02.518Z,1024.3
2022-10-13T01:57:02.483Z,1024.3
2022-10-13T01:58:02.439Z,1024.3
2022-10-13T01:59:02.294Z,1024.3
2022-10-13T02:00:02.079Z,1024.2
2022-10-13T02:01:02.025Z,1024.3
2022-10-13T02:02:02.155Z,1024.3
2022-10-13T02:03:02.214Z,1024.3
2022-10-13T02:04:01.876Z,1024.2
2022-10-13T02:05:01.934Z,1024.2
2022-10-13T02:06:02.815Z,1024.2
2022-10-13T02:07:02.552Z,1024.2
2022-10-13T02:08:02.496Z,1024.2
2022-10-13T02:09:02.355Z,1024.2
2022-10-13T02:10:02.211Z,1024.2
2022-10-13T02:11:02.135Z,1024.2
2022-10-13T02:12:01.883Z,1024.2
2022-10-13T02:13:01.877Z,1024.1
2022-10-13T02:14:02.809Z,1024.2
2022-10-13T02:15:02.546Z,1024.2
2022-10-13T02:16:02.591Z,1024.2
2022-10-13T02:17:02.274Z,1024.1
2022-10-13T02:18:02.347Z,1024.1
2022-10-13T02:19:02.075Z,1024.2
2022-10-13T02:20:02.001Z,1024.1
2022-10-13T02:21:01.762Z,1024.1
2022-10-13T02:22:02.737Z,1024
2022-10-13T02:23:02.500Z,1024.1
2022-10-13T02:24:02.449Z,1024.1
2022-10-13T02:25:02.340Z,1024.1
2022-10-13T02:26:02.107Z,1024.1
2022-10-13T02:27:02.046Z,1024.2
2022-10-13T02:28:01.907Z,1024.2
2022-10-13T02:29:02.733Z,1024.1
2022-10-13T02:30:02.515Z,1024.1
2022-10-13T02:31:02.538Z,1024.1
2022-10-13T02:32:02.484Z,1024.1
2022-10-13T02:33:02.508Z,1024.1
2022-10-13T02:34:02.269Z,1024.1
2022-10-13T02:35:02.079Z,1024.1
2022-10-13T02:36:02.003Z,1024.1
2022-10-13T02:37:01.767Z,1024.1
2022-10-13T02:38:02.753Z,1024
2022-10-13T02:39:02.701Z,1024
2022-10-13T02:40:02.474Z,1024.1
2022-10-13T02:41:02.462Z,1024
2022-10-13T02:42:02.197Z,1024.1
2022-10-13T02:43:02.240Z,1024.1
2022-10-13T02:44:01.940Z,1024.1
2022-10-13T02:45:01.940Z,1024.1
2022-10-13T02:46:02.845Z,1024
2022-10-13T02:47:02.665Z,1024.1
2022-10-13T02:48:02.661Z,1024.1
2022-10-13T02:49:02.396Z,1024.1
2022-10-13T02:50:02.459Z,1024
2022-10-13T02:51:02.351Z,1024
2022-10-13T02:52:02.098Z,1024
2022-10-13T02:53:02.031Z,1024
2022-10-13T02:54:01.760Z,1024.1
2022-10-13T02:55:02.775Z,1024
2022-10-13T02:56:02.650Z,1024
2022-10-13T02:57:02.412Z,1024
2022-10-13T02:58:02.354Z,1024
2022-10-13T02:59:02.111Z,1024
2022-10-13T03:00:02.134Z,1024
2022-10-13T03:01:01.995Z,1023.9
2022-10-13T03:02:02.142Z,1023.9
2022-10-13T03:03:02.162Z,1024
2022-10-13T03:04:01.860Z,1024
2022-10-13T03:05:01.823Z,1024
2022-10-13T03:06:02.757Z,1023.9
2022-10-13T03:07:02.522Z,1024
2022-10-13T03:08:02.513Z,1023.9
2022-10-13T03:09:02.325Z,1023.9
2022-10-13T03:10:02.098Z,1024
2022-10-13T03:11:02.086Z,1024
2022-10-13T03:12:01.836Z,1024
2022-10-13T03:13:01.786Z,1023.9
2022-10-13T03:14:02.667Z,1024
2022-10-13T03:15:02.439Z,1023.9
2022-10-13T03:16:02.379Z,1024
2022-10-13T03:17:02.363Z,1024
2022-10-13T03:18:02.193Z,1023.9
2022-10-13T03:19:02.124Z,1023.8
2022-10-13T03:20:01.882Z,1024
2022-10-13T03:21:01.813Z,1023.9
2022-10-13T03:22:02.747Z,1023.9
2022-10-13T03:23:02.494Z,1023.9
2022-10-13T03:24:02.481Z,1023.9
2022-10-13T03:25:02.427Z,1023.9
2022-10-13T03:26:02.128Z,1023.8
2022-10-13T03:27:02.142Z,1023.8
2022-10-13T03:28:01.842Z,1023.9
2022-10-13T03:29:01.887Z,1023.9
2022-10-13T03:30:02.714Z,1023.9
2022-10-13T03:31:02.499Z,1023.9
2022-10-13T03:32:02.477Z,1023.8
2022-10-13T03:33:02.450Z,1023.9
2022-10-13T03:34:02.346Z,1023.9
2022-10-13T03:35:02.095Z,1023.9
2022-10-13T03:36:02.038Z,1023.9
2022-10-13T03:37:01.722Z,1023.9
2022-10-13T03:38:02.751Z,1023.8
2022-10-13T03:39:02.484Z,1023.8
2022-10-13T03:40:02.425Z,1023.8
2022-10-13T03:41:02.346Z,1023.9
2022-10-13T03:42:02.079Z,1023.9
2022-10-13T03:43:02.078Z,1023.9
2022-10-13T03:44:01.832Z,1023.8
2022-10-13T03:45:01.865Z,1023.9
2022-10-13T03:46:02.713Z,1023.9
2022-10-13T03:47:02.423Z,1023.9
2022-10-13T03:48:02.385Z,1023.8
2022-10-13T03:49:02.251Z,1023.8
2022-10-13T03:50:01.969Z,1023.8
2022-10-13T03:51:01.933Z,1023.8
2022-10-13T03:52:01.873Z,1023.8
2022-10-13T03:53:02.677Z,1023.8
2022-10-13T03:54:02.441Z,1023.8
2022-10-13T03:55:02.468Z,1023.8
2022-10-13T03:56:02.309Z,1023.8
2022-10-13T03:57:01.998Z,1023.7
2022-10-13T03:58:02.034Z,1023.8
2022-10-13T03:59:01.749Z,1023.7
2022-10-13T04:00:02.765Z,1023.8
2022-10-13T04:01:02.478Z,1023.8
2022-10-13T04:02:02.754Z,1023.7
2022-10-13T04:03:02.702Z,1023.8
2022-10-13T04:04:02.441Z,1023.7
2022-10-13T04:05:02.458Z,1023.7
2022-10-13T04:06:02.293Z,1023.7
2022-10-13T04:07:02.071Z,1023.7
2022-10-13T04:08:02.081Z,1023.7
2022-10-13T04:09:01.789Z,1023.7
2022-10-13T04:10:02.769Z,1023.7
2022-10-13T04:11:02.546Z,1023.7
2022-10-13T04:12:02.458Z,1023.7
2022-10-13T04:13:02.415Z,1023.7
2022-10-13T04:14:02.129Z,1023.7
2022-10-13T04:15:02.182Z,1023.7
2022-10-13T04:16:01.864Z,1023.7
2022-10-13T04:17:01.780Z,1023.8
2022-10-13T04:18:02.779Z,1023.8
2022-10-13T04:19:02.834Z,1023.8
2022-10-13T04:20:02.758Z,1023.8
2022-10-13T04:21:02.505Z,1023.8
2022-10-13T04:22:02.466Z,1023.8
2022-10-13T04:23:02.363Z,1023.8
2022-10-13T04:24:02.151Z,1023.8
2022-10-13T04:25:02.242Z,1023.7
2022-10-13T04:26:02.182Z,1023.8
2022-10-13T04:27:01.907Z,1023.8
2022-10-13T04:28:01.915Z,1023.8
2022-10-13T04:29:02.733Z,1023.8
2022-10-13T04:30:02.495Z,1023.8
2022-10-13T04:31:02.515Z,1023.7
2022-10-13T04:32:02.457Z,1023.7
2022-10-13T04:33:02.175Z,1023.8
2022-10-13T04:34:02.166Z,1023.8
2022-10-13T04:35:01.948Z,1023.8
2022-10-13T04:36:01.859Z,1023.8
2022-10-13T04:37:02.759Z,1023.8
2022-10-13T04:38:02.526Z,1023.8
2022-10-13T04:39:02.469Z,1023.8
2022-10-13T04:40:02.356Z,1023.8
2022-10-13T04:41:02.094Z,1023.8
2022-10-13T04:42:02.069Z,1023.8
2022-10-13T04:43:01.861Z,1023.8
2022-10-13T04:44:01.804Z,1023.8
2022-10-13T04:45:02.677Z,1023.8
2022-10-13T04:46:02.439Z,1023.8
2022-10-13T04:47:02.359Z,1023.9
2022-10-13T04:48:02.350Z,1023.8
2022-10-13T04:49:02.044Z,1023.9
2022-10-13T04:50:02.116Z,1023.8
2022-10-13T04:51:01.874Z,1023.8
2022-10-13T04:52:01.904Z,1023.8
2022-10-13T04:53:02.717Z,1023.8
2022-10-13T04:54:02.517Z,1023.8
2022-10-13T04:55:02.443Z,1023.9
2022-10-13T04:56:02.326Z,1023.9
2022-10-13T04:57:02.022Z,1023.9
2022-10-13T04:58:01.991Z,1023.9
2022-10-13T04:59:01.761Z,1023.9
2022-10-13T05:00:02.744Z,1023.9
2022-10-13T05:01:02.608Z,1023.9
2022-10-13T05:02:02.562Z,1023.9
2022-10-13T05:03:02.531Z,1024
2022-10-13T05:04:02.566Z,1024
2022-10-13T05:05:02.295Z,1023.9
2022-10-13T05:06:02.377Z,1023.9
2022-10-13T05:07:19.220Z,1023.9
2022-10-13T05:08:01.932Z,1023.9
2022-10-13T05:09:01.917Z,1023.9
2022-10-13T05:10:02.739Z,1023.9
2022-10-13T05:11:02.546Z,1023.9
2022-10-13T05:12:02.491Z,1023.9
2022-10-13T05:13:02.400Z,1023.8
2022-10-13T05:14:02.137Z,1023.9
2022-10-13T05:15:02.179Z,1023.8
2022-10-13T05:16:01.854Z,1023.9
2022-10-13T05:17:01.925Z,1023.8
2022-10-13T05:18:01.883Z,1023.8
2022-10-13T05:19:02.777Z,1023.8
2022-10-13T05:20:02.553Z,1023.8
2022-10-13T05:21:02.539Z,1023.8
2022-10-13T05:22:02.299Z,1023.8
2022-10-13T05:23:02.278Z,1023.8
2022-10-13T05:24:02.045Z,1023.8
2022-10-13T05:25:01.986Z,1023.8
2022-10-13T05:26:01.737Z,1023.8
2022-10-13T05:27:02.710Z,1023.8
2022-10-13T05:28:02.489Z,1023.8
2022-10-13T05:29:02.482Z,1023.9
2022-10-13T05:30:02.352Z,1023.8
2022-10-13T05:31:02.097Z,1023.8
2022-10-13T05:32:02.108Z,1023.8
2022-10-13T05:33:02.132Z,1023.8
2022-10-13T05:34:01.836Z,1023.9
2022-10-13T05:35:01.845Z,1023.9
2022-10-13T05:36:02.774Z,1023.9
2022-10-13T05:37:02.510Z,1023.9
2022-10-13T05:38:02.492Z,1023.9
2022-10-13T05:39:02.309Z,1023.8
2022-10-13T05:40:02.087Z,1023.9
2022-10-13T05:41:02.034Z,1023.9
2022-10-13T05:42:01.762Z,1023.9
2022-10-13T05:43:02.781Z,1023.9
2022-10-13T05:44:02.236Z,1023.9
2022-10-13T05:45:02.222Z,1023.9
2022-10-13T05:46:01.944Z,1023.9
2022-10-13T05:47:08.039Z,1023.9
2022-10-13T05:48:01.767Z,1023.9
2022-10-13T05:49:02.724Z,1023.8
2022-10-13T05:50:02.482Z,1023.9
2022-10-13T05:51:02.702Z,1023.9
2022-10-13T05:52:02.499Z,1023.9
2022-10-13T05:53:02.276Z,1023.9
2022-10-13T05:54:02.285Z,1023.9
2022-10-13T05:55:02.053Z,1023.9
2022-10-13T05:56:01.889Z,1023.9
2022-10-13T05:57:01.694Z,1023.9
2022-10-13T05:58:02.644Z,1023.8
2022-10-13T05:59:02.431Z,1023.9
2022-10-13T06:00:02.480Z,1023.8
2022-10-13T06:01:02.280Z,1023.8
2022-10-13T06:02:02.467Z,1023.9
2022-10-13T06:03:02.330Z,1023.8
2022-10-13T06:04:02.108Z,1023.8
2022-10-13T06:05:02.090Z,1023.8
2022-10-13T06:06:01.868Z,1023.8
2022-10-13T06:07:01.825Z,1023.8
2022-10-13T06:08:02.782Z,1023.8
2022-10-13T06:09:02.508Z,1023.8
2022-10-13T06:10:02.534Z,1023.8
2022-10-13T06:11:02.286Z,1023.8
2022-10-13T06:12:02.220Z,1023.8
2022-10-13T06:13:01.991Z,1023.8
2022-10-13T06:14:01.997Z,1023.7
2022-10-13T06:15:01.723Z,1023.8
2022-10-13T06:16:02.716Z,1023.9
2022-10-13T06:17:02.489Z,1023.8
2022-10-13T06:18:02.476Z,1023.8
2022-10-13T06:19:02.342Z,1023.8
2022-10-13T06:20:02.097Z,1023.8
2022-10-13T06:21:02.122Z,1023.8
2022-10-13T06:22:04.378Z,1023.8
2022-10-13T06:23:02.117Z,1023.9
2022-10-13T06:24:02.174Z,1023.8
2022-10-13T06:25:01.880Z,1023.9
2022-10-13T06:26:01.849Z,1023.8
2022-10-13T06:27:02.749Z,1023.8
2022-10-13T06:28:02.504Z,1023.9
2022-10-13T06:29:02.797Z,1023.9
2022-10-13T06:30:02.736Z,1023.8
2022-10-13T06:31:02.470Z,1023.8
2022-10-13T06:32:02.367Z,1023.9
2022-10-13T06:33:02.419Z,1023.9
2022-10-13T06:34:02.119Z,1023.9
2022-10-13T06:35:02.104Z,1023.9
2022-10-13T06:36:01.807Z,1023.9
2022-10-13T06:37:02.788Z,1023.9
2022-10-13T06:38:02.532Z,1023.8
2022-10-13T06:39:02.567Z,1023.9
2022-10-13T06:40:02.304Z,1023.9
2022-10-13T06:41:02.261Z,1023.9
2022-10-13T06:42:02.058Z,1023.9
2022-10-13T06:43:02.058Z,1023.9
2022-10-13T06:44:01.759Z,1023.8
2022-10-13T06:45:02.775Z,1023.9
2022-10-13T06:46:02.507Z,1023.9
2022-10-13T06:47:02.409Z,1023.8
2022-10-13T06:48:02.471Z,1023.8
2022-10-13T06:49:02.340Z,1023.8
2022-10-13T06:50:02.070Z,1023.8
2022-10-13T06:51:02.129Z,1023.8
2022-10-13T06:52:01.848Z,1023.8
2022-10-13T06:53:01.828Z,1023.8
2022-10-13T06:54:02.691Z,1023.8
2022-10-13T06:55:02.476Z,1023.7
2022-10-13T06:56:02.511Z,1023.7
2022-10-13T06:57:02.381Z,1023.7
2022-10-13T06:58:02.079Z,1023.7
2022-10-13T06:59:02.153Z,1023.7
2022-10-13T07:00:01.989Z,1023.7
2022-10-13T07:01:01.970Z,1023.6
2022-10-13T07:02:01.742Z,1023.7
2022-10-13T07:03:02.711Z,1023.6
2022-10-13T07:04:02.474Z,1023.7
2022-10-13T07:05:02.466Z,1023.6
2022-10-13T07:06:02.264Z,1023.7
2022-10-13T07:07:02.047Z,1023.6
2022-10-13T07:08:02.018Z,1023.6
2022-10-13T07:09:01.822Z,1023.6
2022-10-13T07:10:02.706Z,1023.6
2022-10-13T07:11:02.512Z,1023.6
2022-10-13T07:12:02.499Z,1023.6
2022-10-13T07:13:02.321Z,1023.6
2022-10-13T07:15:02.138Z,1023.6
2022-10-13T07:16:01.847Z,1023.6
2022-10-13T07:17:01.973Z,1023.6
2022-10-13T07:18:01.922Z,1023.6
2022-10-13T07:19:01.756Z,1023.6
2022-10-13T07:20:07.812Z,1023.6
2022-10-13T07:21:02.521Z,1023.6
2022-10-13T07:22:02.470Z,1023.6
2022-10-13T07:23:02.397Z,1023.6
2022-10-13T07:24:02.235Z,1023.6
2022-10-13T07:25:02.230Z,1023.6
2022-10-13T07:26:02.038Z,1023.6
2022-10-13T07:27:08.287Z,1023.6
2022-10-13T07:28:02.029Z,1023.6
2022-10-13T07:29:01.954Z,1023.7
2022-10-13T07:30:01.714Z,1023.6
2022-10-13T07:31:02.727Z,1023.5
2022-10-13T07:32:02.697Z,1023.6
2022-10-13T07:33:02.467Z,1023.6
2022-10-13T07:34:02.424Z,1023.6
2022-10-13T07:35:02.256Z,1023.6
2022-10-13T07:36:02.245Z,1023.6
2022-10-13T07:37:01.974Z,1023.5
2022-10-13T07:38:02.014Z,1023.6
2022-10-13T07:39:01.766Z,1023.6
2022-10-13T07:40:02.746Z,1023.5
2022-10-13T07:41:02.461Z,1023.6
2022-10-13T07:42:02.433Z,1023.6
2022-10-13T07:43:02.378Z,1023.6
2022-10-13T07:44:02.178Z,1023.5
2022-10-13T07:45:02.108Z,1023.5
2022-10-13T07:46:01.832Z,1023.5
2022-10-13T07:47:01.853Z,1023.5
2022-10-13T07:48:01.833Z,1023.5
2022-10-13T07:49:02.814Z,1023.5
2022-10-13T07:50:02.539Z,1023.5
2022-10-13T07:51:02.515Z,1023.5
2022-10-13T07:52:02.398Z,1023.5
2022-10-13T07:53:02.177Z,1023.5
2022-10-13T07:54:02.215Z,1023.5
2022-10-13T07:55:01.937Z,1023.5
2022-10-13T07:56:01.898Z,1023.4
2022-10-13T07:57:02.979Z,1023.5
2022-10-13T07:58:01.722Z,1023.5
2022-10-13T07:59:02.731Z,1023.5
2022-10-13T08:00:02.522Z,1023.5
2022-10-13T08:01:02.348Z,1023.5
2022-10-13T08:02:02.649Z,1023.4
2022-10-13T08:03:02.375Z,1023.4
2022-10-13T08:04:02.449Z,1023.5
2022-10-13T08:05:02.291Z,1023.5
2022-10-13T08:06:02.084Z,1023.4
2022-10-13T08:07:02.086Z,1023.4
2022-10-13T08:08:01.767Z,1023.5
2022-10-13T08:09:02.817Z,1023.4
2022-10-13T08:10:02.565Z,1023.4
2022-10-13T08:11:02.671Z,1023.4
2022-10-13T08:12:02.567Z,1023.4
2022-10-13T08:13:02.396Z,1023.4
2022-10-13T08:14:02.312Z,1023.4
2022-10-13T08:15:07.106Z,1023.4
2022-10-13T08:16:01.824Z,1023.4
2022-10-13T08:17:01.928Z,1023.4
2022-10-13T08:18:02.708Z,1023.4
2022-10-13T08:19:02.517Z,1023.4
2022-10-13T08:20:02.499Z,1023.4
2022-10-13T08:21:58.538Z,1023.4
2022-10-13T08:22:01.891Z,1023.3
2022-10-13T08:23:02.748Z,1023.4
2022-10-13T08:24:02.544Z,1023.3
2022-10-13T08:25:02.529Z,1023.3
2022-10-13T08:26:02.392Z,1023.3
2022-10-13T08:27:02.203Z,1023.3
2022-10-13T08:28:02.185Z,1023.3
2022-10-13T08:29:24.408Z,1023.3
2022-10-13T08:30:02.367Z,1023.3
2022-10-13T08:31:02.845Z,1023.3
2022-10-13T08:32:02.657Z,1023.3
2022-10-13T08:33:02.396Z,1023.2
2022-10-13T08:34:02.408Z,1023.2
2022-10-13T08:35:02.249Z,1023.2
2022-10-13T08:36:02.003Z,1023.2
2022-10-13T08:37:01.911Z,1023.2
2022-10-13T08:38:01.712Z,1023.2
2022-10-13T08:39:02.670Z,1023.2
2022-10-13T08:40:02.450Z,1023.2
2022-10-13T08:41:02.462Z,1023.2
2022-10-13T08:42:02.288Z,1023.2
2022-10-13T08:43:02.269Z,1023.2
2022-10-13T08:45:40.710Z,1023.2
2022-10-13T08:45:42.572Z,1023.2
2022-10-13T08:46:02.337Z,1023.2
2022-10-13T08:47:02.552Z,1023.2
2022-10-13T08:48:02.282Z,1023.3
2022-10-13T08:49:02.295Z,1023.2
2022-10-13T08:50:02.090Z,1023.2
2022-10-13T08:51:02.057Z,1023.2
2022-10-13T08:52:01.778Z,1023.2
2022-10-13T08:53:02.736Z,1023.2
2022-10-13T08:54:02.533Z,1023.1
2022-10-13T08:55:02.482Z,1023.1
2022-10-13T08:56:02.318Z,1023.1
2022-10-13T08:57:02.222Z,1023.2
2022-10-13T08:58:02.100Z,1023.2
2022-10-13T08:59:01.834Z,1023.2
2022-10-13T09:00:02.846Z,1023.2
2022-10-13T09:01:02.599Z,1023.1
2022-10-13T09:02:01.970Z,1023.1
2022-10-13T09:03:01.820Z,1023.1
2022-10-13T09:04:02.723Z,1023.1
2022-10-13T09:05:02.495Z,1023.1
2022-10-13T09:06:02.432Z,1023.2
2022-10-13T09:07:02.258Z,1023.1
2022-10-13T09:08:02.035Z,1023.1
2022-10-13T09:09:01.955Z,1023.1
2022-10-13T09:10:01.725Z,1023.2
2022-10-13T09:11:02.740Z,1023.1
2022-10-13T09:12:02.474Z,1023.1
2022-10-13T09:13:02.404Z,1023.1
2022-10-13T09:14:02.319Z,1023.1
2022-10-13T09:15:02.099Z,1023
2022-10-13T09:16:02.015Z,1023
2022-10-13T09:17:02.384Z,1023
2022-10-13T09:18:02.083Z,1023
2022-10-13T09:19:02.112Z,1023
2022-10-13T09:20:01.837Z,1023
2022-10-13T09:21:02.774Z,1022.9
2022-10-13T09:22:02.585Z,1023
2022-10-13T09:23:02.476Z,1022.9
2022-10-13T09:24:02.427Z,1022.9
2022-10-13T09:25:02.163Z,1022.9
2022-10-13T09:26:02.230Z,1023
2022-10-13T09:27:02.031Z,1023
2022-10-13T09:28:02.079Z,1023
2022-10-13T09:29:01.924Z,1023
2022-10-13T09:30:02.739Z,1023
2022-10-13T09:31:02.543Z,1023
2022-10-13T09:32:01.751Z,1023
2022-10-13T09:33:02.765Z,1023
2022-10-13T09:34:02.507Z,1023
2022-10-13T09:35:02.465Z,1022.9
2022-10-13T09:36:02.430Z,1023
2022-10-13T09:37:02.136Z,1022.9
2022-10-13T09:38:02.114Z,1022.9
2022-10-13T09:39:01.939Z,1022.9
2022-10-13T09:40:01.858Z,1022.9
2022-10-13T09:41:02.698Z,1022.9
2022-10-13T09:42:02.476Z,1022.9
2022-10-13T09:43:02.430Z,1022.9
2022-10-13T09:44:02.384Z,1022.8
2022-10-13T09:45:02.078Z,1022.9
2022-10-13T09:46:02.014Z,1022.8
2022-10-13T09:47:01.820Z,1022.9
2022-10-13T09:48:01.874Z,1022.9
2022-10-13T09:49:02.699Z,1022.9
2022-10-13T09:50:07.889Z,1022.8
2022-10-13T09:51:02.617Z,1022.9
2022-10-13T09:52:02.592Z,1022.8
2022-10-13T09:53:02.335Z,1022.8
2022-10-13T09:54:02.369Z,1022.8
2022-10-13T09:55:02.100Z,1022.8
2022-10-13T09:56:02.067Z,1022.8
2022-10-13T09:57:01.869Z,1022.8
2022-10-13T09:58:01.826Z,1022.8
2022-10-13T09:59:02.812Z,1022.7
2022-10-13T10:01:02.593Z,1022.8
2022-10-13T10:02:01.748Z,1022.8
2022-10-13T10:03:02.791Z,1022.8
2022-10-13T10:04:02.714Z,1022.7
2022-10-13T10:05:02.568Z,1022.7
2022-10-13T10:06:02.562Z,1022.8
2022-10-13T10:07:02.481Z,1022.7
2022-10-13T10:08:02.327Z,1022.7
2022-10-13T10:09:05.554Z,1022.7
2022-10-13T10:10:02.336Z,1022.8
2022-10-13T10:11:02.328Z,1022.7
2022-10-13T10:12:02.070Z,1022.8
2022-10-13T10:13:02.054Z,1022.7
2022-10-13T10:14:01.742Z,1022.7
2022-10-13T10:15:02.735Z,1022.7
2022-10-13T10:16:02.504Z,1022.6
2022-10-13T10:17:01.715Z,1022.7
2022-10-13T10:18:02.747Z,1022.6
2022-10-13T10:19:02.493Z,1022.6
2022-10-13T10:20:02.484Z,1022.6
2022-10-13T10:21:02.435Z,1022.5
2022-10-13T10:22:02.151Z,1022.5
2022-10-13T10:23:02.104Z,1022.5
2022-10-13T10:24:01.925Z,1022.5
2022-10-13T10:25:01.893Z,1022.5
2022-10-13T10:26:02.728Z,1022.5
2022-10-13T10:27:02.493Z,1022.5
2022-10-13T10:28:02.509Z,1022.5
2022-10-13T10:29:02.517Z,1022.5
2022-10-13T10:30:02.373Z,1022.5
2022-10-13T10:31:02.284Z,1022.5
2022-10-13T10:32:02.311Z,1022.5
2022-10-13T10:33:02.026Z,1022.5
2022-10-13T10:34:01.961Z,1022.5
2022-10-13T10:35:01.766Z,1022.5
2022-10-13T10:36:02.861Z,1022.5
2022-10-13T10:37:02.571Z,1022.5
2022-10-13T10:38:02.557Z,1022.5
2022-10-13T10:39:02.316Z,1022.4
2022-10-13T10:40:02.305Z,1022.4
2022-10-13T10:41:02.013Z,1022.4
2022-10-13T10:42:02.075Z,1022.5
2022-10-13T10:43:01.793Z,1022.5
2022-10-13T10:44:02.736Z,1022.4
2022-10-13T10:45:02.514Z,1022.4
2022-10-13T10:46:02.557Z,1022.4
2022-10-13T10:47:02.327Z,1022.4
2022-10-13T10:48:02.058Z,1022.4
2022-10-13T10:49:01.995Z,1022.4
2022-10-13T10:50:01.755Z,1022.4
2022-10-13T10:51:02.754Z,1022.4
2022-10-13T10:52:02.515Z,1022.3
2022-10-13T10:53:02.496Z,1022.3
2022-10-13T10:54:02.436Z,1022.3
2022-10-13T10:55:02.167Z,1022.3
2022-10-13T10:56:02.119Z,1022.2
2022-10-13T10:57:01.900Z,1022.3
2022-10-13T10:58:01.897Z,1022.3
2022-10-13T10:59:02.712Z,1022.3
2022-10-13T11:00:02.545Z,1022.3
2022-10-13T11:01:02.445Z,1022.3
2022-10-13T11:02:02.442Z,1022.3
2022-10-13T11:03:02.284Z,1022.2
2022-10-13T11:04:02.309Z,1022.2
2022-10-13T11:05:07.065Z,1022.2
2022-10-13T11:06:01.758Z,1022.2
2022-10-13T11:07:02.867Z,1022.3
2022-10-13T11:08:02.655Z,1022.2
2022-10-13T11:09:02.553Z,1022.2
2022-10-13T11:10:02.352Z,1022.2
2022-10-13T11:11:02.262Z,1022.2
2022-10-13T11:12:02.050Z,1022.2
2022-10-13T11:13:01.996Z,1022.2
2022-10-13T11:14:01.787Z,1022.1
2022-10-13T11:15:02.789Z,1022.2
2022-10-13T11:16:02.521Z,1022.2
2022-10-13T11:17:02.508Z,1022.1
2022-10-13T11:18:02.432Z,1022.1
2022-10-13T11:19:02.264Z,1022.1
2022-10-13T11:20:02.113Z,1022.1
2022-10-13T11:21:02.077Z,1022.1
2022-10-13T11:22:01.887Z,1022
2022-10-13T11:23:01.786Z,1022.1
2022-10-13T11:24:02.775Z,1022
2022-10-13T11:25:02.532Z,1022
2022-10-13T11:26:02.394Z,1022
2022-10-13T11:27:02.254Z,1022
2022-10-13T11:28:02.077Z,1022
2022-10-13T11:29:01.965Z,1022
2022-10-13T11:30:01.809Z,1021.9
2022-10-13T11:31:02.696Z,1022
2022-10-13T11:32:01.714Z,1022
2022-10-13T11:33:02.635Z,1022
2022-10-13T11:34:02.439Z,1021.9
2022-10-13T11:35:02.379Z,1021.9
2022-10-13T11:36:02.283Z,1021.9
2022-10-13T11:37:02.173Z,1021.9
2022-10-13T11:38:12.735Z,1021.8
2022-10-13T11:39:02.043Z,1021.8
2022-10-13T11:40:01.954Z,1021.9
2022-10-13T11:41:01.758Z,1021.9
2022-10-13T11:42:02.692Z,1021.8
2022-10-13T11:43:08.626Z,1021.8
2022-10-13T11:44:02.368Z,1021.8
2022-10-13T11:45:02.317Z,1021.8
2022-10-13T11:46:02.194Z,1021.8
2022-10-13T11:47:02.181Z,1021.7
2022-10-13T11:48:02.196Z,1021.7
2022-10-13T11:49:01.898Z,1021.7
2022-10-13T11:50:01.841Z,1021.8
2022-10-13T11:51:02.616Z,1021.7
2022-10-13T11:52:02.473Z,1021.7
2022-10-13T11:53:02.531Z,1021.7
2022-10-13T11:54:02.306Z,1021.7
2022-10-13T11:55:02.131Z,1021.7
2022-10-13T11:56:02.017Z,1021.6
2022-10-13T11:57:01.804Z,1021.7
2022-10-13T11:58:02.837Z,1021.7
2022-10-13T11:59:02.583Z,1021.7
2022-10-13T12:00:02.570Z,1021.6
2022-10-13T12:01:02.426Z,1021.6
2022-10-13T12:02:02.278Z,1021.6
2022-10-13T12:03:02.337Z,1021.6
2022-10-13T12:04:02.072Z,1021.6
2022-10-13T12:05:02.051Z,1021.6
2022-10-13T12:06:01.799Z,1021.6
2022-10-13T12:07:02.784Z,1021.6
2022-10-13T12:08:02.569Z,1021.5
2022-10-13T12:09:02.545Z,1021.5
2022-10-13T12:10:02.533Z,1021.5
2022-10-13T12:11:02.269Z,1021.5
2022-10-13T12:12:02.239Z,1021.4
2022-10-13T12:13:01.932Z,1021.5
2022-10-13T12:14:01.921Z,1021.5
2022-10-13T12:15:07.513Z,1021.5
2022-10-13T12:16:02.222Z,1021.4
2022-10-13T12:17:02.572Z,1021.4
2022-10-13T12:18:02.528Z,1021.4
2022-10-13T12:19:02.373Z,1021.4
2022-10-13T12:20:02.135Z,1021.5
2022-10-13T12:21:02.112Z,1021.5
2022-10-13T12:22:01.840Z,1021.5
2022-10-13T12:23:02.827Z,1021.4
2022-10-13T12:24:02.551Z,1021.5
2022-10-13T12:25:02.513Z,1021.5
2022-10-13T12:26:02.382Z,1021.5
2022-10-13T12:27:02.158Z,1021.5
2022-10-13T12:28:02.097Z,1021.4
2022-10-13T12:29:01.829Z,1021.4
2022-10-13T12:30:01.861Z,1021.4
2022-10-13T12:31:02.737Z,1021.4
2022-10-13T12:32:02.675Z,1021.4
2022-10-13T12:33:02.641Z,1021.3